createdAt,value
2017-09-10T00:01:12.846Z,11.97
2017-09-10T00:03:41.162Z,12.05
2017-09-10T00:06:09.502Z,12.01
2017-09-10T00:08:37.814Z,12.03
2017-09-10T00:11:06.130Z,12.15
2017-09-10T00:13:34.478Z,12.16
2017-09-10T00:16:02.797Z,12.26
2017-09-10T00:18:31.121Z,12.32
2017-09-10T00:21:00.238Z,12.43
2017-09-10T00:23:28.558Z,12.39
2017-09-10T00:25:56.873Z,12.48
2017-09-10T00:28:25.974Z,12.12
2017-09-10T00:30:55.051Z,12.31
2017-09-10T00:33:23.367Z,12.24
2017-09-10T00:35:51.768Z,12.24
2017-09-10T00:38:20.095Z,12.09
2017-09-10T00:40:48.410Z,12.10
2017-09-10T00:43:16.808Z,12.13
2017-09-10T00:45:45.123Z,12.02
2017-09-10T00:48:13.434Z,12.05
2017-09-10T00:50:42.566Z,12.12
2017-09-10T00:53:10.874Z,12.29
2017-09-10T00:55:39.190Z,12.39
2017-09-10T00:58:08.302Z,12.45
2017-09-10T01:00:36.626Z,12.48
2017-09-10T01:03:04.947Z,12.54
2017-09-10T01:05:34.054Z,12.57
2017-09-10T01:08:03.138Z,12.50
2017-09-10T01:10:31.450Z,12.46
2017-09-10T01:12:59.786Z,12.39
2017-09-10T01:15:28.102Z,12.20
2017-09-10T01:17:56.420Z,12.14
2017-09-10T01:20:24.762Z,12.02
2017-09-10T01:22:53.083Z,11.99
2017-09-10T01:25:21.407Z,12.04
2017-09-10T01:27:49.751Z,12.10
2017-09-10T01:30:18.066Z,12.20
2017-09-10T01:32:46.385Z,12.26
2017-09-10T01:35:14.728Z,12.28
2017-09-10T01:37:43.045Z,12.31
2017-09-10T01:40:11.358Z,12.40
2017-09-10T01:42:39.697Z,12.43
2017-09-10T01:45:08.010Z,12.55
2017-09-10T01:47:36.325Z,12.56
2017-09-10T01:50:04.679Z,12.62
2017-09-10T01:52:33.812Z,12.59
2017-09-10T01:55:02.132Z,12.59
2017-09-10T01:57:30.478Z,12.52
2017-09-10T01:59:58.798Z,12.65
2017-09-10T02:02:27.115Z,12.71
2017-09-10T02:04:56.218Z,12.72
2017-09-10T02:07:25.416Z,12.52
2017-09-10T02:09:53.725Z,12.51
2017-09-10T02:12:22.066Z,12.46
2017-09-10T02:14:51.145Z,12.38
2017-09-10T02:17:19.462Z,12.54
2017-09-10T02:19:47.798Z,12.58
2017-09-10T02:22:16.140Z,12.48
2017-09-10T02:24:44.447Z,12.43
2017-09-10T02:27:12.795Z,12.44
2017-09-10T02:29:41.116Z,12.59
2017-09-10T02:32:09.430Z,12.78
2017-09-10T02:34:38.541Z,12.91
2017-09-10T02:37:06.862Z,12.96
2017-09-10T02:39:35.198Z,13.04
2017-09-10T02:42:03.550Z,12.79
2017-09-10T02:44:32.630Z,12.98
2017-09-10T02:47:00.950Z,13.06
2017-09-10T02:49:29.290Z,12.91
2017-09-10T02:51:57.605Z,13.04
2017-09-10T02:54:25.919Z,12.98
2017-09-10T02:56:54.264Z,12.94
2017-09-10T02:59:23.342Z,12.87
2017-09-10T03:01:52.418Z,12.92
2017-09-10T03:04:20.762Z,12.86
2017-09-10T03:06:49.074Z,13.00
2017-09-10T03:09:17.386Z,13.09
2017-09-10T03:11:46.491Z,13.14
2017-09-10T03:14:15.567Z,13.20
2017-09-10T03:16:43.878Z,13.21
2017-09-10T03:19:12.986Z,13.08
2017-09-10T03:21:41.307Z,13.17
2017-09-10T03:24:09.622Z,13.11
2017-09-10T03:26:38.722Z,13.09
2017-09-10T03:29:07.803Z,13.11
2017-09-10T03:31:36.878Z,13.02
2017-09-10T03:34:05.228Z,12.93
2017-09-10T03:36:33.550Z,12.85
2017-09-10T03:39:02.294Z,12.95
2017-09-10T03:41:30.629Z,12.87
2017-09-10T03:43:58.941Z,12.97
2017-09-10T03:46:27.254Z,13.05
2017-09-10T03:48:55.586Z,13.02
2017-09-10T03:51:24.663Z,12.95
2017-09-10T03:53:53.746Z,12.84
2017-09-10T03:56:22.088Z,12.92
2017-09-10T03:58:50.401Z,12.90
2017-09-10T04:01:18.711Z,12.83
2017-09-10T04:03:47.847Z,12.70
2017-09-10T04:06:16.155Z,12.67
2017-09-10T04:08:44.465Z,12.55
2017-09-10T04:11:13.569Z,12.41
2017-09-10T04:13:42.654Z,12.43
2017-09-10T04:16:11.734Z,12.54
2017-09-10T04:18:40.078Z,12.34
2017-09-10T04:21:08.386Z,12.35
2017-09-10T04:23:36.702Z,12.44
2017-09-10T04:26:05.806Z,12.54
2017-09-10T04:28:34.877Z,12.61
2017-09-10T04:31:03.190Z,12.42
2017-09-10T04:33:32.307Z,12.43
2017-09-10T04:36:00.619Z,12.54
2017-09-10T04:38:28.976Z,12.65
2017-09-10T04:40:57.318Z,12.75
2017-09-10T04:43:25.637Z,12.79
2017-09-10T04:45:53.941Z,12.78
2017-09-10T04:48:22.283Z,12.79
2017-09-10T04:50:50.594Z,12.84
2017-09-10T04:53:18.917Z,12.88
2017-09-10T04:55:47.250Z,12.79
2017-09-10T04:58:15.558Z,12.74
2017-09-10T05:00:44.639Z,12.63
2017-09-10T05:03:13.741Z,12.55
2017-09-10T05:05:42.054Z,12.29
2017-09-10T05:08:10.361Z,12.33
2017-09-10T05:10:38.700Z,12.26
2017-09-10T05:13:07.783Z,12.41
2017-09-10T05:15:36.091Z,12.37
2017-09-10T05:18:05.194Z,12.50
2017-09-10T05:20:33.511Z,12.18
2017-09-10T05:23:01.819Z,12.31
2017-09-10T05:25:30.162Z,12.21
2017-09-10T05:27:58.478Z,12.29
2017-09-10T05:30:26.795Z,12.26
2017-09-10T05:32:55.129Z,12.24
2017-09-10T05:35:23.441Z,12.13
2017-09-10T05:37:52.570Z,12.39
2017-09-10T05:40:20.912Z,12.27
2017-09-10T05:42:49.230Z,12.34
2017-09-10T05:45:17.542Z,12.12
2017-09-10T05:47:45.894Z,12.17
2017-09-10T05:50:14.198Z,12.38
2017-09-10T05:52:42.505Z,12.53
2017-09-10T05:55:11.606Z,12.70
2017-09-10T05:57:39.918Z,12.84
2017-09-10T06:00:08.235Z,12.99
2017-09-10T06:02:36.582Z,13.02
2017-09-10T06:05:04.895Z,13.21
2017-09-10T06:07:33.206Z,13.14
2017-09-10T06:10:02.310Z,13.34
2017-09-10T06:12:30.618Z,13.28
2017-09-10T06:14:58.930Z,13.39
2017-09-10T06:17:27.275Z,13.41
2017-09-10T06:19:55.592Z,13.33
2017-09-10T06:22:23.906Z,13.45
2017-09-10T06:24:55.254Z,13.47
2017-09-10T06:27:23.606Z,13.51
2017-09-10T06:29:51.922Z,13.56
2017-09-10T06:32:20.262Z,13.57
2017-09-10T06:34:48.579Z,13.42
2017-09-10T06:37:16.895Z,13.47
2017-09-10T06:39:45.253Z,13.57
2017-09-10T06:42:13.571Z,13.81
2017-09-10T06:44:42.028Z,14.12
2017-09-10T06:47:10.373Z,14.20
2017-09-10T06:49:39.451Z,14.11
2017-09-10T06:52:07.762Z,13.56
2017-09-10T06:54:36.098Z,13.47
2017-09-10T06:57:04.411Z,13.35
2017-09-10T06:59:33.491Z,13.47
2017-09-10T07:02:01.854Z,13.66
2017-09-10T07:04:30.170Z,13.64
2017-09-10T07:06:59.308Z,13.80
2017-09-10T07:09:27.658Z,13.80
2017-09-10T07:11:55.971Z,13.55
2017-09-10T07:14:24.291Z,13.67
2017-09-10T07:16:52.636Z,13.74
2017-09-10T07:19:20.950Z,13.36
2017-09-10T07:21:50.046Z,13.54
2017-09-10T07:24:18.390Z,13.68
2017-09-10T07:26:46.702Z,13.67
2017-09-10T07:29:15.020Z,13.60
2017-09-10T07:31:43.358Z,13.76
2017-09-10T07:34:11.682Z,13.86
2017-09-10T07:36:39.994Z,13.92
2017-09-10T07:39:08.330Z,14.01
2017-09-10T07:41:37.407Z,14.13
2017-09-10T07:44:05.730Z,14.37
2017-09-10T07:46:34.071Z,14.38
2017-09-10T07:49:03.151Z,14.44
2017-09-10T07:51:31.471Z,14.67
2017-09-10T07:53:59.806Z,14.82
2017-09-10T07:56:28.121Z,14.91
2017-09-10T07:58:56.442Z,15.00
2017-09-10T08:01:24.793Z,15.09
2017-09-10T08:03:53.110Z,15.13
2017-09-10T08:06:21.427Z,15.37
2017-09-10T08:08:49.767Z,15.22
2017-09-10T08:11:18.078Z,15.35
2017-09-10T08:13:47.158Z,15.28
2017-09-10T08:16:15.511Z,15.28
2017-09-10T08:18:43.841Z,15.45
2017-09-10T08:21:12.930Z,15.42
2017-09-10T08:26:00.587Z,15.46
2017-09-10T08:28:29.682Z,15.61
2017-09-10T08:30:58.006Z,15.83
2017-09-10T08:33:26.342Z,15.87
2017-09-10T08:35:55.418Z,16.10
2017-09-10T08:38:23.729Z,16.18
2017-09-10T08:40:52.068Z,16.12
2017-09-10T08:43:20.382Z,16.19
2017-09-10T08:45:49.462Z,15.93
2017-09-10T08:48:17.799Z,15.86
2017-09-10T08:50:46.114Z,15.92
2017-09-10T08:53:14.425Z,15.99
2017-09-10T08:55:43.526Z,15.85
2017-09-10T08:58:12.623Z,15.89
2017-09-10T09:00:41.702Z,15.95
2017-09-10T09:03:10.811Z,16.11
2017-09-10T09:05:39.892Z,16.28
2017-09-10T09:08:08.203Z,16.26
2017-09-10T09:10:36.554Z,16.27
2017-09-10T09:13:04.866Z,15.78
2017-09-10T09:15:33.182Z,15.71
2017-09-10T09:18:01.521Z,15.54
2017-09-10T09:20:29.850Z,15.57
2017-09-10T09:22:58.388Z,15.51
2017-09-10T09:25:27.299Z,15.48
2017-09-10T09:27:55.614Z,15.17
2017-09-10T09:30:23.943Z,15.60
2017-09-10T09:32:52.289Z,15.65
2017-09-10T09:35:20.599Z,15.65
2017-09-10T09:37:48.923Z,15.63
2017-09-10T09:40:17.262Z,15.79
2017-09-10T09:42:45.580Z,15.86
2017-09-10T09:45:13.894Z,16.00
2017-09-10T09:47:43.006Z,16.19
2017-09-10T09:50:11.323Z,16.25
2017-09-10T09:52:39.638Z,16.31
2017-09-10T09:55:07.976Z,16.10
2017-09-10T09:57:36.283Z,16.13
2017-09-10T10:00:04.598Z,16.31
2017-09-10T10:02:32.942Z,16.44
2017-09-10T10:05:01.262Z,16.54
2017-09-10T10:07:29.574Z,16.55
2017-09-10T10:09:57.938Z,16.95
2017-09-10T10:12:26.247Z,17.09
2017-09-10T10:14:54.567Z,16.94
2017-09-10T10:17:23.678Z,17.03
2017-09-10T10:19:51.994Z,16.97
2017-09-10T10:22:20.306Z,17.06
2017-09-10T10:24:48.645Z,17.18
2017-09-10T10:27:16.963Z,17.33
2017-09-10T10:29:45.278Z,17.21
2017-09-10T10:32:14.404Z,17.22
2017-09-10T10:34:42.718Z,17.29
2017-09-10T10:37:11.026Z,17.20
2017-09-10T10:39:40.129Z,17.52
2017-09-10T10:42:09.215Z,17.56
2017-09-10T10:44:38.302Z,17.72
2017-09-10T10:47:06.645Z,17.64
2017-09-10T10:49:34.958Z,17.73
2017-09-10T10:52:03.274Z,17.54
2017-09-10T10:54:32.378Z,17.74
2017-09-10T10:57:00.690Z,17.18
2017-09-10T10:59:29.053Z,17.51
2017-09-10T11:01:57.397Z,17.67
2017-09-10T11:04:26.485Z,17.52
2017-09-10T11:06:55.566Z,17.70
2017-09-10T11:09:23.906Z,17.72
2017-09-10T11:11:52.218Z,17.88
2017-09-10T11:14:20.530Z,17.47
2017-09-10T11:16:49.633Z,17.82
2017-09-10T11:19:18.711Z,17.91
2017-09-10T11:21:47.027Z,18.09
2017-09-10T11:24:15.373Z,18.09
2017-09-10T11:26:44.453Z,18.47
2017-09-10T11:29:12.764Z,19.02
2017-09-10T11:31:41.875Z,19.18
2017-09-10T11:34:10.198Z,19.31
2017-09-10T11:36:38.519Z,19.30
2017-09-10T11:39:07.630Z,19.58
2017-09-10T11:41:36.710Z,19.68
2017-09-10T11:44:05.030Z,19.09
2017-09-10T11:46:33.371Z,18.49
2017-09-10T11:49:02.453Z,18.23
2017-09-10T11:51:30.780Z,18.19
2017-09-10T11:53:59.114Z,18.03
2017-09-10T11:56:27.426Z,18.04
2017-09-10T11:58:55.751Z,18.47
2017-09-10T12:01:24.855Z,18.53
2017-09-10T12:03:53.173Z,18.33
2017-09-10T12:06:22.249Z,18.72
2017-09-10T12:08:50.586Z,18.78
2017-09-10T12:11:18.906Z,18.86
2017-09-10T12:13:47.222Z,18.90
2017-09-10T12:16:15.567Z,19.56
2017-09-10T12:18:43.883Z,19.62
2017-09-10T12:21:12.198Z,19.63
2017-09-10T12:23:40.562Z,19.60
2017-09-10T12:26:08.870Z,19.71
2017-09-10T12:28:37.190Z,19.98
2017-09-10T12:31:06.293Z,20.25
2017-09-10T12:33:34.602Z,20.60
2017-09-10T12:36:02.951Z,20.65
2017-09-10T12:38:31.300Z,19.68
2017-09-10T12:40:59.610Z,19.74
2017-09-10T12:43:28.690Z,19.50
2017-09-10T12:45:57.031Z,19.46
2017-09-10T12:48:25.355Z,19.61
2017-09-10T12:50:54.435Z,19.65
2017-09-10T12:53:22.779Z,19.52
2017-09-10T12:55:51.094Z,19.59
2017-09-10T12:58:19.418Z,19.76
2017-09-10T13:00:47.808Z,19.34
2017-09-10T13:03:16.123Z,19.42
2017-09-10T13:05:45.337Z,19.62
2017-09-10T13:08:13.694Z,19.53
2017-09-10T13:10:42.002Z,19.63
2017-09-10T13:13:10.323Z,19.98
2017-09-10T13:15:38.696Z,19.90
2017-09-10T13:18:07.047Z,20.12
2017-09-10T13:20:35.363Z,20.53
2017-09-10T13:23:03.739Z,20.89
2017-09-10T13:25:32.053Z,21.44
2017-09-10T13:28:00.366Z,22.02
2017-09-10T13:30:29.471Z,22.16
2017-09-10T13:32:57.782Z,22.50
2017-09-10T13:35:26.094Z,21.88
2017-09-10T13:37:54.440Z,21.71
2017-09-10T13:40:22.759Z,21.07
2017-09-10T13:42:51.070Z,21.26
2017-09-10T13:45:20.174Z,20.45
2017-09-10T13:47:49.249Z,20.16
2017-09-10T13:50:17.572Z,21.84
2017-09-10T13:52:45.906Z,22.51
2017-09-10T13:55:14.222Z,22.77
2017-09-10T13:57:42.545Z,23.12
2017-09-10T14:00:11.242Z,23.40
2017-09-10T14:02:39.558Z,23.40
2017-09-10T14:05:07.871Z,22.87
2017-09-10T14:07:36.215Z,23.45
2017-09-10T14:10:04.525Z,22.85
2017-09-10T14:12:32.838Z,22.34
2017-09-10T14:15:01.182Z,21.70
2017-09-10T14:17:29.494Z,21.51
2017-09-10T14:19:57.798Z,22.73
2017-09-10T14:22:26.902Z,22.29
2017-09-10T14:24:55.985Z,21.78
2017-09-10T14:27:24.302Z,21.43
2017-09-10T14:29:52.642Z,20.83
2017-09-10T14:32:20.954Z,20.30
2017-09-10T14:34:49.262Z,20.14
2017-09-10T14:37:17.615Z,20.03
2017-09-10T14:39:45.930Z,19.98
2017-09-10T14:42:14.250Z,20.33
2017-09-10T14:44:43.360Z,21.10
2017-09-10T14:47:12.438Z,21.87
2017-09-10T14:49:41.527Z,21.27
2017-09-10T14:52:09.877Z,21.23
2017-09-10T14:54:38.196Z,21.74
2017-09-10T14:57:07.310Z,22.35
2017-09-10T14:59:36.388Z,22.87
2017-09-10T15:02:04.701Z,23.44
2017-09-10T15:04:33.038Z,23.23
2017-09-10T15:07:01.378Z,22.59
2017-09-10T15:09:29.798Z,21.78
2017-09-10T15:11:58.109Z,21.42
2017-09-10T15:14:27.194Z,21.14
2017-09-10T15:16:55.546Z,20.73
2017-09-10T15:19:23.862Z,20.17
2017-09-10T15:21:52.176Z,20.24
2017-09-10T15:24:20.507Z,20.21
2017-09-10T15:26:48.824Z,19.99
2017-09-10T15:29:17.163Z,19.65
2017-09-10T15:31:45.503Z,19.43
2017-09-10T15:34:13.838Z,19.87
2017-09-10T15:36:42.941Z,20.93
2017-09-10T15:39:11.258Z,20.85
2017-09-10T15:41:39.606Z,20.07
2017-09-10T15:44:08.687Z,19.83
2017-09-10T15:46:37.770Z,19.68
2017-09-10T15:49:06.116Z,19.49
2017-09-10T15:51:34.442Z,19.89
2017-09-10T15:54:03.230Z,19.95
2017-09-10T15:56:31.573Z,19.90
2017-09-10T15:58:59.885Z,19.49
2017-09-10T16:01:28.194Z,19.84
2017-09-10T16:03:56.534Z,20.85
2017-09-10T16:06:24.853Z,20.80
2017-09-10T16:08:53.199Z,20.79
2017-09-10T16:11:21.510Z,21.02
2017-09-10T16:13:49.917Z,21.05
2017-09-10T16:16:18.254Z,20.91
2017-09-10T16:18:46.573Z,20.46
2017-09-10T16:21:14.910Z,19.86
2017-09-10T16:23:43.218Z,19.49
2017-09-10T16:26:11.595Z,19.33
2017-09-10T16:28:39.938Z,19.03
2017-09-10T16:31:08.254Z,19.11
2017-09-10T16:33:36.583Z,19.17
2017-09-10T16:36:04.936Z,18.85
2017-09-10T16:38:33.267Z,18.78
2017-09-10T16:41:01.582Z,18.50
2017-09-10T16:43:29.919Z,18.37
2017-09-10T16:45:58.230Z,18.28
2017-09-10T16:48:27.310Z,18.31
2017-09-10T16:50:55.650Z,18.20
2017-09-10T16:53:23.979Z,18.39
2017-09-10T16:55:53.058Z,18.53
2017-09-10T16:58:21.399Z,19.27
2017-09-10T17:00:49.715Z,20.07
2017-09-10T17:03:18.130Z,20.39
2017-09-10T17:05:46.438Z,20.33
2017-09-10T17:08:14.810Z,20.07
2017-09-10T17:10:43.192Z,19.73
2017-09-10T17:13:11.508Z,19.25
2017-09-10T17:15:39.848Z,18.71
2017-09-10T17:18:08.166Z,18.36
2017-09-10T17:20:36.478Z,18.17
2017-09-10T17:23:05.587Z,17.93
2017-09-10T17:25:33.910Z,17.89
2017-09-10T17:28:02.220Z,17.65
2017-09-10T17:30:31.326Z,17.62
2017-09-10T17:32:59.639Z,17.57
2017-09-10T17:35:27.987Z,17.52
2017-09-10T17:37:56.314Z,17.57
2017-09-10T17:40:24.627Z,17.47
2017-09-10T17:42:52.942Z,17.35
2017-09-10T17:45:21.274Z,17.25
2017-09-10T17:47:49.589Z,17.17
2017-09-10T17:50:17.898Z,17.07
2017-09-10T17:52:46.306Z,16.97
2017-09-10T17:55:14.639Z,16.84
2017-09-10T17:57:42.964Z,16.80
2017-09-10T18:00:11.303Z,16.68
2017-09-10T18:02:39.618Z,16.58
2017-09-10T18:05:08.700Z,16.49
2017-09-10T18:07:37.045Z,16.41
2017-09-10T18:10:05.366Z,16.27
2017-09-10T18:12:33.673Z,16.14
2017-09-10T18:15:02.016Z,15.89
2017-09-10T18:17:30.329Z,15.80
2017-09-10T18:19:58.647Z,15.77
2017-09-10T18:22:27.754Z,15.68
2017-09-10T18:24:56.066Z,15.50
2017-09-10T18:27:24.378Z,15.29
2017-09-10T18:29:52.718Z,15.39
2017-09-10T18:32:21.031Z,15.44
2017-09-10T18:34:49.379Z,15.27
2017-09-10T18:37:17.690Z,15.32
2017-09-10T18:39:46.002Z,15.29
2017-09-10T18:42:14.344Z,14.83
2017-09-10T18:44:42.662Z,14.84
2017-09-10T18:47:11.782Z,14.69
2017-09-10T18:49:40.095Z,14.86
2017-09-10T18:52:08.443Z,14.94
2017-09-10T18:54:36.758Z,14.94
2017-09-10T18:57:05.071Z,15.01
2017-09-10T18:59:34.187Z,14.98
2017-09-10T19:02:02.528Z,14.95
2017-09-10T19:04:30.854Z,14.85
2017-09-10T19:06:59.174Z,14.75
2017-09-10T19:09:27.517Z,14.44
2017-09-10T19:11:55.834Z,14.33
2017-09-10T19:14:24.149Z,14.22
2017-09-10T19:16:53.255Z,14.37
2017-09-10T19:19:21.602Z,14.47
2017-09-10T19:21:49.918Z,14.45
2017-09-10T19:24:18.254Z,14.47
2017-09-10T19:26:46.599Z,14.38
2017-09-10T19:29:14.968Z,14.45
2017-09-10T19:31:43.327Z,14.40
2017-09-10T19:34:12.431Z,14.27
2017-09-10T19:36:41.560Z,14.28
2017-09-10T19:39:09.875Z,14.14
2017-09-10T19:41:38.188Z,13.95
2017-09-10T19:44:07.299Z,14.05
2017-09-10T19:46:35.620Z,13.77
2017-09-10T19:49:03.945Z,13.88
2017-09-10T19:51:33.057Z,14.07
2017-09-10T19:54:01.375Z,13.79
2017-09-10T19:56:29.734Z,14.04
2017-09-10T19:58:58.058Z,14.00
2017-09-10T20:01:27.163Z,13.96
2017-09-10T20:03:56.278Z,13.90
2017-09-10T20:06:24.596Z,14.02
2017-09-10T20:08:52.906Z,13.92
2017-09-10T20:11:21.380Z,13.83
2017-09-10T20:13:49.725Z,13.77
2017-09-10T20:16:18.071Z,13.63
2017-09-10T20:18:47.186Z,13.72
2017-09-10T20:21:15.506Z,13.88
2017-09-10T20:23:43.829Z,13.84
2017-09-10T20:26:12.943Z,13.49
2017-09-10T20:28:41.284Z,13.59
2017-09-10T20:31:09.598Z,13.64
2017-09-10T20:33:37.940Z,13.56
2017-09-10T20:36:06.278Z,13.54
2017-09-10T20:38:34.594Z,13.48
2017-09-10T20:41:03.776Z,13.44
2017-09-10T20:43:33.004Z,13.58
2017-09-10T20:46:01.322Z,13.63
2017-09-10T20:48:30.435Z,13.51
2017-09-10T20:50:58.755Z,13.53
2017-09-10T20:53:27.073Z,13.69
2017-09-10T20:55:56.182Z,13.61
2017-09-10T20:58:24.514Z,13.68
2017-09-10T21:00:52.862Z,13.81
2017-09-10T21:03:21.202Z,13.84
2017-09-10T21:05:50.283Z,13.82
2017-09-10T21:08:18.613Z,13.82
2017-09-10T21:10:46.950Z,13.68
2017-09-10T21:13:16.037Z,13.68
2017-09-10T21:15:44.353Z,13.50
2017-09-10T21:18:14.222Z,13.60
2017-09-10T21:20:44.231Z,13.46
2017-09-10T21:23:13.362Z,13.39
2017-09-10T21:25:42.579Z,13.40
2017-09-10T21:28:10.902Z,13.33
2017-09-10T21:30:39.245Z,13.41
2017-09-10T21:33:07.562Z,13.49
2017-09-10T21:35:35.899Z,13.37
2017-09-10T21:38:04.974Z,13.38
2017-09-10T21:40:34.050Z,13.39
2017-09-10T21:43:02.400Z,13.46
2017-09-10T21:45:30.731Z,13.29
2017-09-10T21:47:59.062Z,13.37
2017-09-10T21:50:27.380Z,13.34
2017-09-10T21:52:55.699Z,13.38
2017-09-10T21:55:24.047Z,13.48
2017-09-10T21:57:52.373Z,13.49
2017-09-10T22:00:20.682Z,13.48
2017-09-10T22:02:49.026Z,13.47
2017-09-10T22:05:17.338Z,13.40
2017-09-10T22:07:45.652Z,13.33
2017-09-10T22:10:14.758Z,13.38
2017-09-10T22:12:43.838Z,13.23
2017-09-10T22:15:12.152Z,13.25
2017-09-10T22:17:40.497Z,13.31
2017-09-10T22:20:08.813Z,13.26
2017-09-10T22:22:37.124Z,13.36
2017-09-10T22:25:05.462Z,13.39
2017-09-10T22:27:33.774Z,13.46
2017-09-10T22:30:02.079Z,13.41
2017-09-10T22:32:30.424Z,13.34
2017-09-10T22:34:58.729Z,13.20
2017-09-10T22:37:27.070Z,13.22
2017-09-10T22:39:55.436Z,13.14
2017-09-10T22:42:24.514Z,13.20
2017-09-10T22:44:52.851Z,13.18
2017-09-10T22:47:21.163Z,13.26
2017-09-10T22:49:49.503Z,13.24
2017-09-10T22:52:17.810Z,13.08
2017-09-10T22:54:46.163Z,13.24
2017-09-10T22:57:14.479Z,13.17
2017-09-10T22:59:42.790Z,13.25
2017-09-10T23:02:11.886Z,13.32
2017-09-10T23:04:40.982Z,13.45
2017-09-10T23:07:10.090Z,13.33
2017-09-10T23:09:39.171Z,13.27
2017-09-10T23:12:07.490Z,13.39
2017-09-10T23:14:35.825Z,13.49
2017-09-10T23:17:04.144Z,13.43
2017-09-10T23:19:32.486Z,13.48
2017-09-10T23:22:01.566Z,13.54
2017-09-10T23:24:29.876Z,13.61
2017-09-10T23:26:58.982Z,13.62
2017-09-10T23:29:28.059Z,13.55
2017-09-10T23:31:57.170Z,13.62
2017-09-10T23:34:26.250Z,13.62
2017-09-10T23:36:55.335Z,13.62
2017-09-10T23:39:23.682Z,13.63
2017-09-10T23:41:51.998Z,13.48
2017-09-10T23:44:20.314Z,13.29
2017-09-10T23:46:48.655Z,13.36
2017-09-10T23:49:16.970Z,13.27
2017-09-10T23:51:46.054Z,13.31
2017-09-10T23:54:15.163Z,13.22
2017-09-10T23:56:44.246Z,13.31
2017-09-10T23:59:13.350Z,13.37
